Time;durP1;ratioP1;P1;durP2;ratioP2;P2;SDS_P1;SDS_P2;PMS_P1;PMS_P2;Temp;Humidity;BMP_temperature;BMP_pressure;BME280_temperature;BME280_humidity;BME280_pressure;Samples;Min_cycle;Max_cycle;Signal;HPM_P1;HPM_P2
2022/10/18 00:00:53;;;;;;;5.35;2.90;;;;;;;16.93;53.21;102168.16;5022580;28;20045;-71
2022/10/18 00:03:22;;;;;;;4.18;2.47;;;;;;;16.91;53.13;102172.94;5020242;28;20084;-72
2022/10/18 00:05:50;;;;;;;4.18;2.63;;;;;;;16.92;53.26;102171.94;5027235;28;20453;-72
2022/10/18 00:08:19;;;;;;;4.15;2.80;;;;;;;16.92;53.18;102160.88;5015397;28;20042;-72
2022/10/18 00:10:48;;;;;;;4.97;2.80;;;;;;;16.92;52.88;102161.75;5018305;28;20049;-72
2022/10/18 00:13:16;;;;;;;4.47;2.63;;;;;;;16.92;53.06;102161.75;5007942;28;20453;-71
2022/10/18 00:15:49;;;;;;;3.90;2.70;;;;;;;16.94;53.42;102156.06;5022977;28;20042;-71
2022/10/18 00:18:19;;;;;;;4.50;2.50;;;;;;;16.93;53.06;102148.78;5012675;28;20515;-71
2022/10/18 00:20:57;;;;;;;4.50;2.72;;;;;;;16.93;53.21;102146.03;4982761;28;20053;-70
2022/10/18 00:23:26;;;;;;;3.80;2.35;;;;;;;16.90;53.06;102146.34;4998938;28;20061;-70
2022/10/18 00:26:06;;;;;;;4.30;2.85;;;;;;;16.92;53.30;102147.91;5026289;28;20037;-70
2022/10/18 00:28:35;;;;;;;5.55;3.00;;;;;;;16.89;53.25;102151.00;5022878;28;20042;-70
2022/10/18 00:31:14;;;;;;;4.65;2.70;;;;;;;16.91;53.52;102145.28;5019518;28;20121;-70
2022/10/18 00:33:44;;;;;;;5.22;2.90;;;;;;;16.89;52.93;102139.06;5016081;28;20405;-70
2022/10/18 00:36:13;;;;;;;3.72;2.33;;;;;;;16.88;53.32;102134.53;5016961;28;20076;-70
2022/10/18 00:38:41;;;;;;;3.92;2.53;;;;;;;16.88;53.35;102145.59;5012363;28;20050;-70
2022/10/18 00:41:12;;;;;;;5.30;2.90;;;;;;;16.89;53.19;102134.41;5022018;28;20041;-69
2022/10/18 00:43:57;;;;;;;4.47;3.00;;;;;;;16.89;53.31;102136.28;5023225;28;20493;-69
2022/10/18 00:46:28;;;;;;;5.30;3.08;;;;;;;16.88;53.29;102142.84;5011519;28;20061;-70
2022/10/18 00:49:00;;;;;;;4.28;2.65;;;;;;;16.90;53.50;102140.81;5021442;28;20108;-70
2022/10/18 00:51:32;;;;;;;5.85;3.05;;;;;;;16.87;53.00;102139.19;5004304;28;20116;-70
2022/10/18 00:54:00;;;;;;;5.00;3.17;;;;;;;16.85;53.06;102132.94;5002072;28;20045;-70
2022/10/18 00:56:29;;;;;;;5.03;2.88;;;;;;;16.88;53.28;102129.00;5026811;28;20289;-69
2022/10/18 00:58:57;;;;;;;4.70;2.60;;;;;;;16.88;53.09;102127.13;5018682;28;20604;-70
2022/10/18 01:01:25;;;;;;;4.03;2.42;;;;;;;16.88;53.19;102127.13;5024420;28;20054;-70
2022/10/18 01:03:57;;;;;;;5.65;2.63;;;;;;;16.91;53.06;102128.69;5012680;28;20049;-70
2022/10/18 01:06:27;;;;;;;4.43;2.70;;;;;;;16.89;53.32;102120.56;5025855;28;20107;-69
2022/10/18 01:09:14;;;;;;;4.38;2.50;;;;;;;16.92;53.39;102119.41;5022902;28;20465;-70
2022/10/18 01:12:06;;;;;;;6.10;2.83;;;;;;;16.89;54.01;102115.03;5026543;28;20137;-69
2022/10/18 01:14:43;;;;;;;4.05;2.65;;;;;;;16.91;53.72;102113.00;5024521;28;20045;-69
2022/10/18 01:17:17;;;;;;;4.18;3.03;;;;;;;16.92;53.38;102113.88;5024242;28;20395;-69
2022/10/18 01:20:27;;;;;;;4.30;2.60;;;;;;;16.91;53.38;102109.34;4995206;28;20067;-70
2022/10/18 01:23:01;;;;;;;4.57;2.75;;;;;;;16.91;53.25;102106.59;4993455;28;20873;-69
2022/10/18 01:25:39;;;;;;;4.05;2.42;;;;;;;16.93;53.09;102110.09;5019546;28;20691;-70
2022/10/18 01:28:25;;;;;;;4.63;2.80;;;;;;;16.92;53.76;102113.88;5017828;28;20041;-69
2022/10/18 01:30:57;;;;;;;4.05;2.58;;;;;;;16.90;53.42;102108.50;5011440;28;20133;-70
2022/10/18 01:33:36;;;;;;;4.90;2.50;;;;;;;16.90;53.30;102118.69;5023133;28;20120;-70
2022/10/18 01:36:09;;;;;;;5.88;2.95;;;;;;;16.91;53.21;102114.88;5018938;28;20065;-70
2022/10/18 01:38:39;;;;;;;4.60;3.17;;;;;;;16.90;53.14;102115.91;5024980;28;20498;-70
2022/10/18 01:41:09;;;;;;;4.47;2.88;;;;;;;16.90;53.51;102113.16;5021962;28;20046;-69
2022/10/18 01:43:45;;;;;;;4.25;2.72;;;;;;;16.89;52.96;102114.16;5015909;28;20041;-69
2022/10/18 01:46:17;;;;;;;6.57;2.70;;;;;;;16.90;53.42;102113.16;5025104;28;20121;-69
2022/10/18 01:48:45;;;;;;;;;;;;;;;16.59;54.19;102118.78;5024684;28;20041;-69
2022/10/18 01:51:14;;;;;;;5.68;2.35;;;;;;;16.84;53.25;102110.94;4999231;28;19925;-70
2022/10/18 01:53:41;;;;;;;4.22;2.78;;;;;;;16.85;53.12;102110.81;5023106;28;20121;-70
2022/10/18 01:56:21;;;;;;;4.57;3.20;;;;;;;16.89;53.25;102111.41;5024269;28;20095;-70
2022/10/18 01:59:02;;;;;;;5.05;3.10;;;;;;;16.88;53.36;102112.41;5018757;28;20076;-70
2022/10/18 02:01:41;;;;;;;5.07;2.65;;;;;;;16.87;53.61;102113.44;5024688;28;20699;-70
2022/10/18 02:04:20;;;;;;;4.47;2.60;;;;;;;16.86;53.74;102115.31;5025642;28;20141;-70
2022/10/18 02:06:54;;;;;;;4.32;2.60;;;;;;;16.85;53.20;102112.69;5013734;28;20102;-69
2022/10/18 02:09:34;;;;;;;5.13;2.88;;;;;;;16.86;53.72;102114.44;5021542;28;20088;-70
2022/10/18 02:12:03;;;;;;;4.15;2.50;;;;;;;16.83;53.26;102118.38;5017488;28;20049;-70
2022/10/18 02:14:32;;;;;;;3.95;2.53;;;;;;;16.84;53.62;102110.94;5025673;28;20481;-70
2022/10/18 02:17:05;;;;;;;4.20;2.67;;;;;;;16.85;53.33;102110.81;5014323;28;20134;-70
2022/10/18 02:19:38;;;;;;;4.55;2.83;;;;;;;16.85;53.76;102115.47;5017005;28;20048;-70
2022/10/18 02:22:09;;;;;;;4.47;2.85;;;;;;;16.82;53.84;102105.59;5025148;28;20048;-69
2022/10/18 02:24:39;;;;;;;4.47;2.73;;;;;;;16.81;53.70;102103.84;5021386;28;20045;-70
2022/10/18 02:27:07;;;;;;;3.58;2.40;;;;;;;16.83;53.36;102101.78;5024559;28;20509;-70
2022/10/18 02:29:36;;;;;;;5.07;2.80;;;;;;;16.84;53.76;102108.19;5020439;28;20128;-72
2022/10/18 02:32:11;;;;;;;4.05;2.67;;;;;;;16.85;53.79;102107.16;5024851;28;20103;-72
2022/10/18 02:34:42;;;;;;;5.03;2.75;;;;;;;16.82;53.80;102105.59;5023431;28;20050;-73
2022/10/18 02:37:11;;;;;;;4.90;3.13;;;;;;;16.79;53.60;102107.75;5021940;28;20490;-73
2022/10/18 02:39:44;;;;;;;4.85;2.95;;;;;;;16.77;53.91;102104.25;5026520;28;20586;-72
2022/10/18 02:42:14;;;;;;;4.95;2.80;;;;;;;16.71;54.12;102110.38;5019393;28;20047;-73
2022/10/18 02:44:42;;;;;;;4.30;2.92;;;;;;;16.65;54.33;102109.06;5010909;28;20097;-73
2022/10/18 02:47:12;;;;;;;4.47;3.00;;;;;;;16.64;54.30;102112.84;5023597;28;20133;-73
2022/10/18 02:49:40;;;;;;;4.40;2.88;;;;;;;16.59;54.35;102107.72;5013447;28;20045;-73
2022/10/18 02:52:07;;;;;;;4.93;2.53;;;;;;;16.57;54.43;102114.44;5016992;28;20572;-73
2022/10/18 02:54:35;;;;;;;4.55;2.53;;;;;;;16.54;54.20;102114.72;5019644;28;20095;-73
2022/10/18 02:57:03;;;;;;;5.00;2.83;;;;;;;16.52;54.64;102114.84;5025126;28;20095;-72
2022/10/18 02:59:31;;;;;;;4.22;2.88;;;;;;;16.50;54.77;102121.53;5023261;28;20042;-72
2022/10/18 03:01:58;;;;;;;5.55;2.80;;;;;;;16.47;54.43;102113.53;5022820;28;20095;-73
2022/10/18 03:04:28;;;;;;;3.97;3.03;;;;;;;16.48;54.47;102121.69;5022705;28;20453;-73
2022/10/18 03:07:00;;;;;;;4.97;2.97;;;;;;;16.43;54.51;102124.00;5009537;28;20057;-73
2022/10/18 03:09:28;;;;;;;4.97;2.97;;;;;;;16.43;54.89;102120.34;5021760;28;20046;-73
2022/10/18 03:11:56;;;;;;;4.70;2.88;;;;;;;16.41;54.68;102119.66;5022172;28;20037;-73
2022/10/18 03:14:24;;;;;;;4.07;2.85;;;;;;;16.39;54.96;102122.56;5022359;28;20041;-72
2022/10/18 03:16:51;;;;;;;4.68;3.08;;;;;;;16.38;54.94;102120.78;5022646;28;20045;-72
2022/10/18 03:19:19;;;;;;;4.00;2.83;;;;;;;16.37;55.35;102120.94;5025097;28;20056;-73
2022/10/18 03:21:48;;;;;;;4.75;3.03;;;;;;;16.37;55.24;102124.56;5018685;28;20073;-73
2022/10/18 03:24:16;;;;;;;4.43;2.88;;;;;;;16.35;55.16;102118.31;5016623;28;20384;-73
2022/10/18 03:26:44;;;;;;;4.40;2.78;;;;;;;16.34;55.26;102121.19;5022211;28;20033;-73
2022/10/18 03:29:12;;;;;;;5.65;2.80;;;;;;;16.32;55.09;102118.59;5028395;28;20464;-73
2022/10/18 03:31:40;;;;;;;5.32;3.20;;;;;;;16.32;55.11;102126.03;5021321;28;20105;-72
2022/10/18 03:34:08;;;;;;;5.30;3.00;;;;;;;16.31;55.57;102119.63;5020456;28;20046;-73
2022/10/18 03:36:37;;;;;;;4.65;2.95;;;;;;;16.29;55.19;102121.66;5027056;28;20045;-73
2022/10/18 03:39:06;;;;;;;5.68;3.25;;;;;;;16.29;55.81;102124.41;5050763;22;20068;-87
2022/10/18 03:42:34;;;;;;;6.03;3.22;;;;;;;16.24;56.44;102113.78;4988442;28;20051;-88
2022/10/18 03:54:00;;;;;;;4.68;2.90;;;;;;;16.08;55.53;102115.31;5026676;22;20752;-72
2022/10/18 03:56:29;;;;;;;4.68;2.80;;;;;;;16.13;56.04;102121.28;5021183;28;20053;-71
2022/10/18 03:58:57;;;;;;;4.88;3.08;;;;;;;16.11;56.09;102126.06;5024665;28;20041;-71
2022/10/18 04:01:25;;;;;;;5.13;3.53;;;;;;;16.12;55.68;102116.75;5021792;28;20180;-71
2022/10/18 04:03:53;;;;;;;5.07;3.42;;;;;;;16.10;55.86;102111.38;5007933;28;20048;-71
2022/10/18 04:06:21;;;;;;;5.18;3.25;;;;;;;16.10;56.26;102113.25;5009739;28;20502;-72
2022/10/18 04:08:49;;;;;;;4.40;2.75;;;;;;;16.10;56.15;102116.88;5012163;28;20456;-71
2022/10/18 04:11:16;;;;;;;5.47;3.08;;;;;;;16.11;55.92;102117.75;5026752;28;20136;-71
2022/10/18 04:13:46;;;;;;;5.00;2.90;;;;;;;16.12;56.24;102120.41;5029538;28;20111;-71
2022/10/18 04:16:13;;;;;;;4.93;3.22;;;;;;;16.10;56.54;102121.53;5020595;28;20061;-70
2022/10/18 04:18:41;;;;;;;5.15;3.20;;;;;;;16.10;56.02;102114.13;4998262;28;20046;-71
2022/10/18 04:21:09;;;;;;;5.63;3.17;;;;;;;16.11;56.58;102123.28;5014648;28;20494;-71
2022/10/18 04:23:37;;;;;;;4.85;3.20;;;;;;;16.11;56.51;102115.88;5000603;28;20037;-71
2022/10/18 04:26:07;;;;;;;4.65;3.00;;;;;;;16.10;56.42;102119.66;5005656;28;20403;-71
2022/10/18 04:28:38;;;;;;;4.30;3.05;;;;;;;16.10;56.57;102116.88;5028605;28;20502;-71
2022/10/18 04:31:08;;;;;;;4.45;3.08;;;;;;;16.11;56.72;102120.53;5024300;28;20049;-71
2022/10/18 04:33:36;;;;;;;5.32;3.50;;;;;;;16.08;56.13;102118.94;5011864;28;20471;-71
2022/10/18 04:36:04;;;;;;;4.63;2.95;;;;;;;16.08;56.15;102116.19;5027953;28;20045;-71
2022/10/18 04:38:32;;;;;;;5.57;3.10;;;;;;;16.07;56.16;102124.59;4996158;28;20046;-72
2022/10/18 04:41:00;;;;;;;5.97;3.58;;;;;;;16.07;56.54;102121.84;5018992;28;20051;-72
2022/10/18 04:43:28;;;;;;;5.30;3.47;;;;;;;16.06;56.68;102125.59;5024524;28;20098;-72
2022/10/18 04:45:56;;;;;;;5.30;3.33;;;;;;;16.06;56.62;102126.47;5021301;28;20053;-72
2022/10/18 04:48:25;;;;;;;4.95;3.40;;;;;;;16.08;56.92;102129.13;5026562;28;20764;-72
2022/10/18 04:50:53;;;;;;;4.70;3.33;;;;;;;16.06;56.49;102129.25;5025013;28;20125;-71
2022/10/18 04:53:21;;;;;;;4.30;2.85;;;;;;;16.07;56.93;102132.88;5019912;28;20054;-71
2022/10/18 04:55:50;;;;;;;5.45;3.45;;;;;;;16.08;56.38;102134.63;5025642;28;20045;-72
2022/10/18 04:58:19;;;;;;;5.57;3.88;;;;;;;16.07;56.62;102130.13;5012097;28;20060;-71
2022/10/18 05:00:47;;;;;;;5.47;3.70;;;;;;;16.06;56.79;102131.13;5009659;28;20116;-70
2022/10/18 05:03:16;;;;;;;5.47;3.53;;;;;;;16.05;56.78;102130.25;5023317;28;20088;-71
2022/10/18 05:05:45;;;;;;;6.72;4.13;;;;;;;16.07;56.88;102139.28;5028492;28;20417;-71
2022/10/18 05:08:30;;;;;;;5.95;3.63;;;;;;;16.04;57.09;102136.78;5017893;28;20073;-71
2022/10/18 05:10:58;;;;;;;5.65;3.53;;;;;;;16.05;56.75;102135.78;5020682;28;20585;-71
2022/10/18 05:13:26;;;;;;;5.57;3.55;;;;;;;16.05;56.67;102127.50;5025102;28;20084;-72
2022/10/18 05:15:54;;;;;;;5.15;3.50;;;;;;;16.05;56.69;102130.25;5010002;28;20045;-71
2022/10/18 05:18:22;;;;;;;5.88;3.78;;;;;;;16.05;56.70;102130.25;5017939;28;20066;-71
2022/10/18 05:20:51;;;;;;;5.40;3.38;;;;;;;16.07;56.76;102125.47;5007854;28;20054;-71
2022/10/18 05:23:19;;;;;;;6.05;3.85;;;;;;;16.06;57.37;102125.59;5026814;28;20049;-73
2022/10/18 05:25:50;;;;;;;5.53;3.67;;;;;;;16.07;57.62;102131.00;5027476;28;20067;-73
2022/10/18 05:28:18;;;;;;;6.32;3.95;;;;;;;16.05;57.13;102126.63;5024903;28;20100;-73
2022/10/18 05:31:07;;;;;;;5.93;3.95;;;;;;;16.06;56.94;102122.84;5009162;28;20465;-73
2022/10/18 05:33:35;;;;;;;6.80;3.80;;;;;;;16.06;56.96;102129.25;5006895;28;20030;-72
2022/10/18 05:36:05;;;;;;;5.50;3.83;;;;;;;16.08;56.80;102126.34;5011233;28;20099;-73
2022/10/18 05:38:33;;;;;;;5.97;4.15;;;;;;;16.06;57.29;102131.13;5029831;28;20450;-73
2022/10/18 05:41:06;;;;;;;6.00;3.95;;;;;;;16.06;56.93;102139.41;5024192;28;20076;-73
2022/10/18 05:43:34;;;;;;;7.13;4.35;;;;;;;16.05;57.26;102144.06;5027980;28;20041;-73
2022/10/18 05:46:03;;;;;;;5.88;4.07;;;;;;;16.06;57.06;102145.81;5013749;28;20034;-72
2022/10/18 05:48:31;;;;;;;6.80;4.15;;;;;;;16.07;56.93;102147.56;5024442;28;20045;-73
2022/10/18 05:50:59;;;;;;;7.15;4.57;;;;;;;16.07;56.86;102139.28;5028352;28;20049;-74
2022/10/18 05:53:28;;;;;;;6.32;4.30;;;;;;;16.09;57.44;102140.00;5011108;28;20243;-73
2022/10/18 05:56:05;;;;;;;6.90;3.97;;;;;;;16.08;57.45;102137.41;5026780;28;20052;-72
2022/10/18 05:58:33;;;;;;;6.97;4.25;;;;;;;16.07;57.47;102133.75;5024750;28;20053;-73
2022/10/18 06:01:03;;;;;;;8.90;5.22;;;;;;;16.08;57.23;102135.50;5016631;28;20056;-73
2022/10/18 06:03:32;;;;;;;8.20;5.47;;;;;;;16.08;57.26;102140.16;5011426;28;20799;-73
2022/10/18 06:06:00;;;;;;;7.40;4.78;;;;;;;16.07;56.99;102135.66;5016149;28;20540;-73
2022/10/18 06:08:30;;;;;;;6.68;4.85;;;;;;;16.08;57.19;102141.03;5014492;28;20291;-73
2022/10/18 06:10:58;;;;;;;10.05;5.93;;;;;;;16.06;57.01;102151.34;5014508;28;20044;-73
2022/10/18 06:13:26;;;;;;;9.45;5.68;;;;;;;16.05;57.51;102144.06;5004065;28;20053;-73
2022/10/18 06:15:57;;;;;;;8.52;5.78;;;;;;;16.03;57.07;102159.88;5026051;28;20052;-73
2022/10/18 06:18:25;;;;;;;9.57;5.65;;;;;;;16.05;57.12;102163.41;5026011;28;20045;-73
2022/10/18 06:20:56;;;;;;;9.55;5.63;;;;;;;16.07;57.46;102163.25;5023433;28;20045;-73
2022/10/18 06:23:36;;;;;;;9.13;5.88;;;;;;;16.08;58.14;102165.00;5028436;28;20411;-72
2022/10/18 06:26:07;;;;;;;9.38;5.93;;;;;;;16.06;57.20;102161.50;5024648;28;20191;-74
2022/10/18 06:28:36;;;;;;;9.95;5.90;;;;;;;16.06;57.37;102158.75;5018104;28;20490;-73
2022/10/18 06:31:06;;;;;;;9.85;6.35;;;;;;;16.06;57.45;102167.03;5026549;28;20033;-74
2022/10/18 06:33:35;;;;;;;10.88;6.70;;;;;;;16.06;57.29;102159.63;5022942;28;20072;-73
2022/10/18 06:36:07;;;;;;;9.20;5.75;;;;;;;16.07;57.53;102166.91;5025998;28;20064;-74
2022/10/18 06:38:35;;;;;;;11.15;7.03;;;;;;;16.02;57.85;102163.66;5027038;28;20095;-74
2022/10/18 06:41:06;;;;;;;9.43;6.60;;;;;;;16.07;57.52;102177.94;5002320;28;20053;-74
2022/10/18 06:43:33;;;;;;;10.35;6.20;;;;;;;16.04;57.72;102178.22;5023036;28;20038;-75
2022/10/18 06:46:03;;;;;;;10.60;7.53;;;;;;;16.06;57.70;102178.94;5020719;28;20042;-73
2022/10/18 06:48:31;;;;;;;11.65;7.00;;;;;;;16.06;57.33;102180.84;5028318;28;20568;-78
2022/10/18 06:51:02;;;;;;;11.77;7.45;;;;;;;16.07;57.47;102183.47;5021160;28;20572;-79
2022/10/18 06:53:31;;;;;;;11.20;7.05;;;;;;;16.07;57.25;102177.06;5028742;28;20038;-79
2022/10/18 06:56:00;;;;;;;11.07;7.38;;;;;;;16.07;57.77;102190.88;5027945;28;20049;-77
2022/10/18 06:58:30;;;;;;;10.18;6.93;;;;;;;16.08;57.68;102182.47;5009073;28;20046;-78
2022/10/18 07:00:58;;;;;;;11.55;7.30;;;;;;;16.07;57.82;102188.13;5010226;28;20398;-79
2022/10/18 07:03:26;;;;;;;9.63;6.68;;;;;;;16.07;57.71;102193.63;5026282;28;20116;-79
2022/10/18 07:05:54;;;;;;;10.73;6.82;;;;;;;16.07;57.44;102199.16;5003459;28;20227;-76
2022/10/18 07:08:22;;;;;;;11.32;6.93;;;;;;;16.07;57.62;102200.03;5031494;28;20042;-79
2022/10/18 07:10:53;;;;;;;11.93;7.13;;;;;;;16.10;58.04;102198.88;5017391;28;20045;-79
2022/10/18 07:13:22;;;;;;;11.95;8.13;;;;;;;16.08;57.65;102198.16;5019357;28;20042;-78
2022/10/18 07:16:08;;;;;;;11.07;7.25;;;;;;;16.09;57.91;102206.28;5004397;28;20160;-78
2022/10/18 07:18:42;;;;;;;11.63;7.60;;;;;;;16.08;57.71;102207.31;5025224;28;20084;-79
2022/10/18 07:21:12;;;;;;;12.18;8.13;;;;;;;16.10;57.81;102209.91;5031263;28;20048;-78
2022/10/18 07:23:41;;;;;;;11.15;7.07;;;;;;;16.09;57.91;102210.91;5004059;28;20045;-79
2022/10/18 07:26:13;;;;;;;12.70;7.85;;;;;;;16.11;58.13;102206.16;5019991;28;20046;-80
2022/10/18 07:28:41;;;;;;;11.93;7.47;;;;;;;16.07;57.57;102222.13;5025991;28;20087;-78
2022/10/18 07:31:11;;;;;;;10.95;7.35;;;;;;;16.11;57.55;102223.59;5020291;28;20103;-78
2022/10/18 07:33:41;;;;;;;13.10;7.97;;;;;;;16.08;57.55;102226.66;5028195;28;20041;-79
2022/10/18 07:36:11;;;;;;;15.60;7.72;;;;;;;16.10;57.62;102230.13;5002247;28;20042;-78
2022/10/18 07:38:40;;;;;;;12.73;7.93;;;;;;;16.10;57.74;102232.88;5011702;28;20629;-78
2022/10/18 07:41:10;;;;;;;13.10;7.65;;;;;;;16.12;57.54;102233.63;5004926;28;20552;-78
2022/10/18 07:43:41;;;;;;;13.18;8.25;;;;;;;16.14;57.70;102239.03;5025384;28;20045;-77
2022/10/18 07:46:12;;;;;;;12.52;7.82;;;;;;;16.12;58.30;102236.38;5003041;28;20052;-78
2022/10/18 07:48:40;;;;;;;13.02;8.35;;;;;;;16.13;57.87;102240.03;5027597;28;20525;-78
2022/10/18 07:51:09;;;;;;;13.88;8.68;;;;;;;16.14;58.04;102241.78;5006178;28;20045;-78
2022/10/18 07:53:37;;;;;;;13.02;8.70;;;;;;;16.15;58.32;102246.31;5008389;28;20038;-78
2022/10/18 07:56:08;;;;;;;13.27;8.27;;;;;;;16.16;58.11;102248.06;5020834;28;20038;-78
2022/10/18 07:58:36;;;;;;;12.60;8.98;;;;;;;16.16;58.03;102251.69;5026774;28;20099;-78
2022/10/18 08:01:06;;;;;;;15.43;10.20;;;;;;;16.18;58.40;102254.31;5014657;28;20042;-74
2022/10/18 08:03:36;;;;;;;14.93;9.95;;;;;;;16.20;57.89;102253.19;5023776;28;20053;-75
2022/10/18 08:06:07;;;;;;;16.02;11.00;;;;;;;16.20;57.81;102253.19;5020194;28;20042;-74
2022/10/18 08:08:36;;;;;;;16.88;11.30;;;;;;;16.20;57.93;102267.00;5022902;28;20046;-79
2022/10/18 08:11:06;;;;;;;17.13;11.20;;;;;;;16.22;57.75;102266.88;5022231;28;20147;-73
2022/10/18 08:13:34;;;;;;;16.20;11.25;;;;;;;16.22;58.08;102276.03;5022636;28;20049;-76
2022/10/18 08:16:03;;;;;;;16.05;11.27;;;;;;;16.23;58.38;102277.78;5003417;28;20044;-75
2022/10/18 08:18:31;;;;;;;18.90;12.07;;;;;;;16.24;57.92;102273.13;5027328;28;20692;-76
2022/10/18 08:21:01;;;;;;;19.60;12.77;;;;;;;16.26;57.91;102274.72;5011733;28;20037;-75
2022/10/18 08:23:29;;;;;;;21.38;12.55;;;;;;;16.25;58.10;102281.25;5030771;28;20453;-75
2022/10/18 08:26:01;;;;;;;19.73;13.23;;;;;;;16.28;58.50;102285.66;5029429;28;20053;-75
2022/10/18 08:28:29;;;;;;;19.00;12.67;;;;;;;16.25;58.04;102277.63;5013100;28;20141;-75
2022/10/18 08:30:57;;;;;;;20.52;12.43;;;;;;;16.27;57.88;102283.91;4999279;28;20053;-76
2022/10/18 08:33:25;;;;;;;20.27;12.98;;;;;;;16.27;58.28;102284.78;5029846;28;20053;-75
2022/10/18 08:35:56;;;;;;;20.10;12.52;;;;;;;16.30;58.25;102291.91;5012099;28;20273;-76
2022/10/18 08:38:26;;;;;;;19.42;13.13;;;;;;;16.29;58.28;102298.44;5031032;28;20055;-75
2022/10/18 08:40:54;;;;;;;21.00;13.20;;;;;;;16.29;57.90;102303.09;5011716;28;20107;-76
2022/10/18 08:43:28;;;;;;;22.25;12.98;;;;;;;16.31;58.37;102298.31;5029598;28;20485;-76
2022/10/18 08:45:57;;;;;;;22.95;14.00;;;;;;;16.30;58.27;102305.72;5010638;28;20462;-76
2022/10/18 08:48:32;;;;;;;23.20;13.07;;;;;;;16.32;58.27;102302.84;5027581;28;20103;-75
2022/10/18 08:51:01;;;;;;;19.92;12.93;;;;;;;16.30;57.79;102316.78;5029629;28;20388;-76
2022/10/18 08:53:37;;;;;;;23.40;13.73;;;;;;;16.33;58.29;102319.25;5030021;28;20033;-75
2022/10/18 08:56:13;;;;;;;22.40;13.57;;;;;;;16.33;58.38;102304.59;5029587;28;20057;-76
2022/10/18 08:58:43;;;;;;;21.65;13.23;;;;;;;16.33;57.88;102307.34;5030242;28;20076;-75
2022/10/18 09:01:22;;;;;;;23.83;13.73;;;;;;;16.34;57.95;102321.00;4999977;28;20050;-75
2022/10/18 09:04:09;;;;;;;20.65;13.27;;;;;;;16.34;58.55;102311.84;5031547;28;20514;-76
2022/10/18 09:06:48;;;;;;;22.58;13.65;;;;;;;16.35;58.30;102310.84;5017100;28;20038;-76
2022/10/18 09:09:32;;;;;;;21.67;13.75;;;;;;;16.36;58.22;102312.59;5029587;28;20048;-76
2022/10/18 09:12:15;;;;;;;21.83;13.00;;;;;;;16.36;58.26;102316.22;5005983;28;20042;-76
2022/10/18 09:15:09;;;;;;;22.88;13.85;;;;;;;16.32;58.65;102311.13;5016975;28;20056;-76
2022/10/18 09:17:50;;;;;;;23.92;14.85;;;;;;;16.37;58.48;102311.56;5011651;28;20053;-75
2022/10/18 09:20:24;;;;;;;26.73;15.57;;;;;;;16.38;58.46;102316.09;5029527;28;20064;-76
2022/10/18 09:22:55;;;;;;;23.92;15.02;;;;;;;16.38;57.97;102313.34;5000002;28;20115;-76
2022/10/18 09:25:31;;;;;;;25.02;15.02;;;;;;;16.39;58.21;102315.09;5011105;28;20049;-76
2022/10/18 09:28:14;;;;;;;24.90;14.48;;;;;;;16.41;58.52;102321.34;5029074;28;20139;-76
2022/10/18 09:30:49;;;;;;;22.33;13.80;;;;;;;16.40;58.07;102336.19;5018699;28;20041;-76
2022/10/18 09:33:30;;;;;;;24.63;15.35;;;;;;;16.44;58.07;102337.66;5011480;28;20395;-76
2022/10/18 09:36:01;;;;;;;26.50;16.38;;;;;;;16.43;58.25;102325.72;5029122;28;20045;-76
2022/10/18 09:38:32;;;;;;;27.27;17.23;;;;;;;16.45;58.36;102326.47;5029283;28;20045;-76
2022/10/18 09:41:07;;;;;;;24.60;16.48;;;;;;;16.48;58.01;102336.38;5051062;23;20429;-72
2022/10/18 09:43:47;;;;;;;27.38;18.05;;;;;;;16.49;58.11;102339.00;5055242;28;20044;-74
2022/10/18 09:46:16;;;;;;;28.13;18.52;;;;;;;16.47;58.40;102337.38;5059892;28;20041;-74
2022/10/18 09:48:49;;;;;;;25.52;17.30;;;;;;;16.50;58.21;102337.09;5069995;28;20044;-74
2022/10/18 09:51:21;;;;;;;24.23;16.35;;;;;;;16.50;58.57;102348.13;5053952;28;20064;-74
2022/10/18 09:54:06;;;;;;;27.98;16.98;;;;;;;16.51;58.25;102341.59;5058270;28;20119;-71
2022/10/18 09:56:41;;;;;;;21.77;15.00;;;;;;;16.53;57.96;102345.13;5068555;28;20045;-72
2022/10/18 09:59:27;;;;;;;21.02;14.75;;;;;;;16.54;57.82;102328.41;5051095;28;20048;-71
2022/10/18 10:01:55;;;;;;;22.17;14.35;;;;;;;16.53;57.76;102348.75;5039250;28;20130;-74
2022/10/18 10:04:23;;;;;;;20.63;14.93;;;;;;;16.54;58.06;102361.56;5069656;28;20044;-73
2022/10/18 10:06:53;;;;;;;19.65;13.70;;;;;;;16.55;58.07;102360.56;5059276;28;20061;-73
2022/10/18 10:09:28;;;;;;;19.85;13.82;;;;;;;16.58;57.50;102351.97;5065327;28;20524;-74
2022/10/18 10:11:57;;;;;;;20.63;14.40;;;;;;;16.58;58.08;102351.09;5061924;28;20532;-74
2022/10/18 10:14:29;;;;;;;18.60;13.02;;;;;;;16.58;57.72;102356.63;5061844;28;20440;-73
2022/10/18 10:17:01;;;;;;;21.00;13.90;;;;;;;16.58;57.63;102357.50;5042186;28;20055;-73
2022/10/18 10:19:32;;;;;;;22.33;14.60;;;;;;;16.57;57.89;102369.59;5068795;28;20433;-74
2022/10/18 10:22:05;;;;;;;21.70;15.18;;;;;;;16.60;57.75;102365.66;5067901;28;20083;-70
2022/10/18 10:24:46;;;;;;;22.05;14.60;;;;;;;16.61;58.01;102368.28;5035318;28;20476;-73
2022/10/18 10:27:21;;;;;;;24.52;15.20;;;;;;;16.61;57.50;102368.28;5048420;28;20057;-74
2022/10/18 10:29:57;;;;;;;23.40;15.13;;;;;;;16.64;57.74;102358.84;5067309;28;20040;-72
2022/10/18 10:32:43;;;;;;;24.92;16.42;;;;;;;16.61;58.28;102359.13;5062113;28;20128;-74
2022/10/18 10:35:21;;;;;;;21.58;14.52;;;;;;;16.67;58.12;102368.75;5039080;28;20886;-74
2022/10/18 10:38:23;;;;;;;26.77;17.13;;;;;;;16.67;57.60;102364.09;5055043;28;20057;-70
2022/10/18 10:40:51;;;;;;;33.33;20.27;;;;;;;16.66;57.64;102369.78;5059973;28;20413;-74
2022/10/18 10:43:24;;;;;;;36.42;21.83;;;;;;;16.71;57.41;102371.09;5066751;28;20508;-73
2022/10/18 10:46:11;;;;;;;36.67;21.63;;;;;;;16.70;57.26;102374.00;5066496;28;20368;-73
2022/10/18 10:48:49;;;;;;;40.28;23.50;;;;;;;16.74;57.30;102369.97;5067566;28;20048;-73
2022/10/18 10:51:29;;;;;;;40.40;23.45;;;;;;;16.73;57.36;102363.56;5048778;28;20390;-72
2022/10/18 10:54:14;;;;;;;42.92;23.23;;;;;;;16.74;57.05;102364.44;5068385;28;20416;-74
2022/10/18 10:56:54;;;;;;;41.15;24.33;;;;;;;16.75;57.31;102358.75;5049643;28;20048;-72
2022/10/18 10:59:26;;;;;;;43.72;25.08;;;;;;;16.74;57.60;102354.25;5048544;28;20123;-74
2022/10/18 11:02:19;;;;;;;43.45;24.13;;;;;;;16.72;57.70;102363.69;5049022;28;20120;-74
2022/10/18 11:04:49;;;;;;;41.65;23.58;;;;;;;16.75;57.87;102364.28;5067181;28;20048;-74
2022/10/18 11:07:23;;;;;;;39.08;22.98;;;;;;;16.80;57.70;102363.88;5067752;28;20048;-72
2022/10/18 11:09:59;;;;;;;39.55;23.20;;;;;;;16.83;57.68;102366.34;5067300;28;20070;-74
2022/10/18 11:12:33;;;;;;;42.05;23.48;;;;;;;16.85;57.85;102364.31;5035862;28;20080;-74
2022/10/18 11:15:17;;;;;;;37.88;23.35;;;;;;;16.87;57.33;102360.41;5057500;28;20083;-74
2022/10/18 11:17:51;;;;;;;38.80;22.05;;;;;;;16.91;58.00;102370.16;5050160;28;20123;-72
2022/10/18 11:20:27;;;;;;;40.78;24.15;;;;;;;16.96;57.58;102369.78;5067556;28;20435;-74
2022/10/18 11:23:01;;;;;;;38.13;23.15;;;;;;;17.00;57.38;102368.50;5060725;28;20049;-74
2022/10/18 11:25:43;;;;;;;37.63;22.42;;;;;;;17.05;57.69;102368.97;5049683;28;20144;-75
2022/10/18 11:28:23;;;;;;;36.13;22.30;;;;;;;17.07;57.35;102369.72;5046178;28;20531;-74
2022/10/18 11:31:07;;;;;;;37.03;20.58;;;;;;;17.14;57.09;102364.47;5066544;28;20048;-75
2022/10/18 11:33:48;;;;;;;35.25;20.35;;;;;;;17.18;57.13;102361.28;5053930;28;20037;-73
2022/10/18 11:36:44;;;;;;;32.50;19.23;;;;;;;17.22;57.32;102353.59;5066108;28;20459;-75
2022/10/18 11:39:39;;;;;;;29.90;18.05;;;;;;;17.28;57.36;102350.25;5056815;28;20135;-75
2022/10/18 11:42:19;;;;;;;29.85;18.52;;;;;;;17.34;57.28;102355.19;5058452;28;20033;-75
2022/10/18 11:44:55;;;;;;;28.15;16.67;;;;;;;17.40;57.24;102358.25;5060386;28;20068;-75
2022/10/18 11:47:37;;;;;;;29.83;17.20;;;;;;;17.47;56.84;102368.78;5062602;28;20060;-75
2022/10/18 11:50:18;;;;;;;24.52;14.88;;;;;;;17.52;57.02;102359.03;5052925;28;20171;-73
2022/10/18 11:52:53;;;;;;;24.52;14.15;;;;;;;17.59;56.48;102351.88;5059466;28;20436;-74